createdAt,value
2022-10-08T00:02:15.206Z,101226.72
2022-10-08T00:04:42.197Z,101230.66
2022-10-08T00:07:09.181Z,101222.44
2022-10-08T00:09:36.006Z,101220.19
2022-10-08T00:12:03.310Z,101219.16
2022-10-08T00:14:30.256Z,101211.56
2022-10-08T00:16:57.608Z,101225.31
2022-10-08T00:19:24.637Z,101215.88
2022-10-08T00:21:56.998Z,101213.44
2022-10-08T00:24:24.457Z,101218.78
2022-10-08T00:26:52.434Z,101204.22
2022-10-08T00:29:21.836Z,101201.00
2022-10-08T00:31:50.571Z,101212.00
2022-10-08T00:34:23.320Z,101218.19
2022-10-08T00:36:55.254Z,101215.13
2022-10-08T00:39:24.703Z,101212.69
2022-10-08T00:41:54.282Z,101220.47
2022-10-08T00:44:54.448Z,101215.94
2022-10-08T00:47:33.525Z,101214.53
2022-10-08T00:50:29.022Z,101208.81
2022-10-08T00:53:03.593Z,101211.84
2022-10-08T00:55:33.229Z,101219.88
2022-10-08T00:58:07.481Z,101208.75
2022-10-08T01:00:34.411Z,101209.34
2022-10-08T01:03:03.818Z,101202.97
2022-10-08T01:05:56.925Z,101200.66
2022-10-08T01:08:54.635Z,101192.06
2022-10-08T01:11:33.074Z,101199.25
2022-10-08T01:14:28.467Z,101204.38
2022-10-08T01:17:22.922Z,101187.31
2022-10-08T01:20:30.159Z,101193.84
2022-10-08T01:23:09.441Z,101185.81
2022-10-08T01:26:03.189Z,101198.34
2022-10-08T01:28:52.481Z,101201.38
2022-10-08T01:31:31.160Z,101190.25
2022-10-08T01:34:10.125Z,101186.53
2022-10-08T01:36:44.395Z,101185.66
2022-10-08T01:39:17.588Z,101179.63
2022-10-08T01:41:52.827Z,101182.09
2022-10-08T01:44:35.841Z,101181.19
2022-10-08T01:47:07.820Z,101192.84
2022-10-08T01:49:43.833Z,101170.06
2022-10-08T01:52:22.085Z,101177.41
2022-10-08T01:54:52.096Z,101167.91
2022-10-08T01:57:19.040Z,101177.91
2022-10-08T01:59:54.986Z,101169.44
2022-10-08T02:02:24.705Z,101172.13
2022-10-08T02:04:54.500Z,101165.50
2022-10-08T02:07:25.564Z,101165.09
2022-10-08T02:10:05.028Z,101153.13
2022-10-08T02:12:32.967Z,101156.97
2022-10-08T02:15:00.564Z,101145.81
2022-10-08T02:18:06.386Z,101147.16
2022-10-08T02:20:43.070Z,101134.13
2022-10-08T02:23:38.996Z,101139.38
2022-10-08T02:26:10.517Z,101128.81
2022-10-08T02:29:00.687Z,101128.38
2022-10-08T02:31:54.875Z,101139.22
2022-10-08T02:34:57.403Z,101139.38
2022-10-08T02:37:44.218Z,101145.31
2022-10-08T02:40:16.042Z,101150.56
2022-10-08T02:42:50.979Z,101131.81
2022-10-08T02:45:24.366Z,101135.09
2022-10-08T02:48:02.286Z,101138.00
2022-10-08T02:50:30.588Z,101153.84
2022-10-08T02:52:58.562Z,101143.59
2022-10-08T02:55:57.009Z,101150.03
2022-10-08T02:58:24.666Z,101151.75
2022-10-08T03:01:07.536Z,101158.19
2022-10-08T03:03:44.174Z,101159.81
2022-10-08T03:06:11.627Z,101147.94
2022-10-08T03:08:46.366Z,101151.19
2022-10-08T03:11:14.122Z,101148.50
2022-10-08T03:13:48.747Z,101158.66
2022-10-08T03:16:21.472Z,101165.19
2022-10-08T03:18:52.311Z,101153.91
2022-10-08T03:21:19.464Z,101156.13
2022-10-08T03:23:46.476Z,101141.09
2022-10-08T03:26:18.789Z,101155.06
2022-10-08T03:28:46.133Z,101161.59
2022-10-08T03:31:13.099Z,101156.69
2022-10-08T03:33:40.472Z,101150.06
2022-10-08T03:36:07.530Z,101154.13
2022-10-08T03:38:35.189Z,101164.38
2022-10-08T03:41:02.539Z,101163.22
2022-10-08T03:43:34.128Z,101163.22
2022-10-08T03:46:06.427Z,101170.78
2022-10-08T03:48:33.440Z,101157.41
2022-10-08T03:51:04.754Z,101152.84
2022-10-08T03:53:37.468Z,101155.31
2022-10-08T03:56:11.755Z,101146.00
2022-10-08T03:58:39.187Z,101152.16
2022-10-08T04:01:16.329Z,101153.78
2022-10-08T04:03:45.284Z,101147.63
2022-10-08T04:06:13.256Z,101144.47
2022-10-08T04:08:40.196Z,101137.25
2022-10-08T04:11:09.832Z,101134.09
2022-10-08T04:13:37.880Z,101135.75
2022-10-08T04:16:13.194Z,101138.19
2022-10-08T04:18:41.160Z,101133.06
2022-10-08T04:21:12.248Z,101130.03
2022-10-08T04:23:40.877Z,101135.75
2022-10-08T04:26:10.324Z,101138.41
2022-10-08T04:28:40.145Z,101148.56
2022-10-08T04:31:11.346Z,101151.81
2022-10-08T04:33:38.688Z,101137.84
2022-10-08T04:36:30.673Z,101142.38
2022-10-08T04:38:57.710Z,101143.19
2022-10-08T04:41:28.041Z,101148.31
2022-10-08T04:44:01.257Z,101143.19
2022-10-08T04:46:28.963Z,101149.38
2022-10-08T04:48:57.288Z,101153.69
2022-10-08T04:51:26.319Z,101140.50
2022-10-08T04:53:55.176Z,101147.75
2022-10-08T04:56:25.401Z,101155.78
2022-10-08T04:58:55.401Z,101154.16
2022-10-08T05:01:23.110Z,101146.81
2022-10-08T05:03:52.774Z,101153.22
2022-10-08T05:06:23.982Z,101160.66
2022-10-08T05:08:51.337Z,101154.72
2022-10-08T05:11:19.432Z,101141.78
2022-10-08T05:13:51.217Z,101155.41
2022-10-08T05:16:19.304Z,101157.28
2022-10-08T05:18:46.876Z,101147.59
2022-10-08T05:21:17.908Z,101161.22
2022-10-08T05:24:11.329Z,101160.53
2022-10-08T05:26:57.632Z,101157.72
2022-10-08T05:29:25.516Z,101160.28
2022-10-08T05:31:52.240Z,101150.13
2022-10-08T05:34:19.301Z,101157.56
2022-10-08T05:36:46.653Z,101163.50
2022-10-08T05:39:13.753Z,101161.19
2022-10-08T05:41:41.371Z,101156.66
2022-10-08T05:44:10.865Z,101166.09
2022-10-08T05:46:38.891Z,101162.38
2022-10-08T05:49:08.506Z,101165.88
2022-10-08T05:51:36.205Z,101157.25
2022-10-08T05:54:03.132Z,101162.13
2022-10-08T05:56:31.650Z,101165.41
2022-10-08T05:58:58.488Z,101165.19
2022-10-08T06:01:31.643Z,101160.41
2022-10-08T06:04:09.085Z,101156.09
2022-10-08T06:06:41.563Z,101162.03
2022-10-08T06:09:12.499Z,101165.53
2022-10-08T06:11:39.906Z,101170.31
2022-10-08T06:14:09.853Z,101173.56
2022-10-08T06:16:36.822Z,101166.56
2022-10-08T06:19:05.982Z,101166.81
2022-10-08T06:21:33.277Z,101173.56
2022-10-08T06:24:03.937Z,101177.41
2022-10-08T06:26:36.150Z,101180.09
2022-10-08T06:29:09.952Z,101186.28
2022-10-08T06:34:27.782Z,101188.59
2022-10-08T06:36:54.850Z,101195.94
2022-10-08T06:39:21.805Z,101194.88
2022-10-08T06:41:48.732Z,101200.16
2022-10-08T06:44:15.896Z,101202.94
2022-10-08T06:46:43.246Z,101200.63
2022-10-08T06:49:11.721Z,101201.78
2022-10-08T06:51:38.592Z,101210.19
2022-10-08T06:54:08.266Z,101210.53
2022-10-08T06:56:38.143Z,101208.59
2022-10-08T06:59:06.317Z,101208.94
2022-10-08T07:01:34.806Z,101206.41
2022-10-08T07:04:04.047Z,101208.19
2022-10-08T07:06:30.930Z,101205.97
2022-10-08T07:09:00.994Z,101200.34
2022-10-08T07:11:29.053Z,101207.94
2022-10-08T07:13:56.971Z,101201.84
2022-10-08T07:16:26.781Z,101204.97
2022-10-08T07:18:56.131Z,101204.56
2022-10-08T07:21:23.266Z,101201.84
2022-10-08T07:23:51.051Z,101208.78
2022-10-08T07:26:23.661Z,101205.53
2022-10-08T07:29:04.812Z,101216.69
2022-10-08T07:31:35.826Z,101214.91
2022-10-08T07:34:06.901Z,101211.84
2022-10-08T07:36:34.754Z,101200.56
2022-10-08T07:39:05.600Z,101224.13
2022-10-08T07:41:33.761Z,101213.66
2022-10-08T07:44:02.471Z,101210.78
2022-10-08T07:46:35.152Z,101204.59
2022-10-08T07:49:04.801Z,101208.13
2022-10-08T07:51:34.074Z,101212.91
2022-10-08T07:54:03.160Z,101210.56
2022-10-08T07:56:33.453Z,101196.78
2022-10-08T07:59:01.504Z,101199.41
2022-10-08T08:01:30.168Z,101204.91
2022-10-08T08:04:07.733Z,101196.22
2022-10-08T08:06:40.910Z,101201.66
2022-10-08T08:09:08.200Z,101205.44
2022-10-08T08:11:35.437Z,101209.75
2022-10-08T08:14:07.963Z,101217.59
2022-10-08T08:16:34.877Z,101216.53
2022-10-08T08:19:02.934Z,101217.31
2022-10-08T08:21:33.641Z,101209.34
2022-10-08T08:24:12.788Z,101214.94
2022-10-08T08:26:42.213Z,101207.09
2022-10-08T08:29:13.608Z,101211.19
2022-10-08T08:31:44.008Z,101207.16
2022-10-08T08:34:15.905Z,101200.63
2022-10-08T08:36:47.063Z,101195.00
2022-10-08T08:39:21.910Z,101191.56
2022-10-08T08:42:28.035Z,101194.81
2022-10-08T08:45:02.900Z,101189.13
2022-10-08T08:47:39.572Z,101206.88
2022-10-08T08:50:26.057Z,101182.56
2022-10-08T08:52:53.109Z,101193.97
2022-10-08T08:55:29.551Z,101191.13
2022-10-08T08:58:21.742Z,101185.84
2022-10-08T09:01:11.380Z,101178.56
2022-10-08T09:03:52.119Z,101185.19
2022-10-08T09:06:26.166Z,101190.25
2022-10-08T09:09:14.032Z,101195.88
2022-10-08T09:11:44.080Z,101190.03
2022-10-08T09:14:11.814Z,101179.34
2022-10-08T09:16:39.572Z,101184.63
2022-10-08T09:19:09.012Z,101175.28
2022-10-08T09:21:36.170Z,101184.16
2022-10-08T09:24:03.377Z,101176.91
2022-10-08T09:26:35.525Z,101183.19
2022-10-08T09:29:04.824Z,101179.31
2022-10-08T09:31:48.161Z,101174.47
2022-10-08T09:34:20.018Z,101195.44
2022-10-08T09:37:04.142Z,101190.59
2022-10-08T09:39:34.995Z,101192.69
2022-10-08T09:42:17.479Z,101198.38
2022-10-08T09:44:58.967Z,101199.47
2022-10-08T09:47:27.129Z,101197.19
2022-10-08T09:50:14.387Z,101190.22
2022-10-08T09:52:41.678Z,101200.91
2022-10-08T09:55:18.445Z,101202.50
2022-10-08T09:57:54.011Z,101207.06
2022-10-08T10:00:36.676Z,101194.00
2022-10-08T10:03:06.387Z,101207.69
2022-10-08T10:05:37.350Z,101206.56
2022-10-08T10:08:04.719Z,101216.25
2022-10-08T10:10:41.024Z,101217.47
2022-10-08T10:13:39.035Z,101224.34
2022-10-08T10:16:11.815Z,101223.00
2022-10-08T10:19:08.718Z,101232.22
2022-10-08T10:21:52.577Z,101233.53
2022-10-08T10:24:46.229Z,101235.47
2022-10-08T10:27:24.570Z,101234.56
2022-10-08T10:30:21.013Z,101227.31
2022-10-08T10:33:25.853Z,101235.50
2022-10-08T10:36:06.442Z,101237.56
2022-10-08T10:38:43.321Z,101240.53
2022-10-08T10:45:15.080Z,101249.25
2022-10-08T10:47:42.163Z,101260.47
2022-10-08T10:50:42.810Z,101255.25
2022-10-08T10:53:38.945Z,101254.19
2022-10-08T10:56:14.917Z,101259.66
2022-10-08T10:59:31.116Z,101265.06
2022-10-08T11:02:58.840Z,101267.66
2022-10-08T11:05:29.292Z,101265.31
2022-10-08T11:08:19.947Z,101265.09
2022-10-08T11:11:17.789Z,101262.44
2022-10-08T11:14:06.218Z,101255.44
2022-10-08T11:16:47.894Z,101261.97
2022-10-08T11:19:57.783Z,101251.22
2022-10-08T11:23:03.373Z,101264.84
2022-10-08T11:26:02.060Z,101271.66
2022-10-08T11:29:00.173Z,101261.13
2022-10-08T11:31:44.683Z,101265.50
2022-10-08T11:34:30.005Z,101268.25
2022-10-08T11:37:26.840Z,101263.91
2022-10-08T11:40:31.017Z,101270.16
2022-10-08T11:43:36.797Z,101269.09
2022-10-08T11:46:36.695Z,101287.78
2022-10-08T11:49:25.182Z,101290.19
2022-10-08T11:51:53.509Z,101292.38
2022-10-08T11:54:38.439Z,101290.47
2022-10-08T11:57:55.832Z,101301.81
2022-10-08T12:00:33.204Z,101303.13
2022-10-08T12:03:01.246Z,101298.44
2022-10-08T12:05:46.680Z,101299.16
2022-10-08T12:08:51.692Z,101304.47
2022-10-08T12:11:37.591Z,101301.66
2022-10-08T12:14:16.916Z,101307.28
2022-10-08T12:16:56.272Z,101291.03
2022-10-08T12:19:35.381Z,101307.22
2022-10-08T12:22:27.572Z,101298.13
2022-10-08T12:24:59.353Z,101298.47
2022-10-08T12:27:37.469Z,101304.00
2022-10-08T12:30:20.058Z,101286.44
2022-10-08T12:33:13.148Z,101292.16
2022-10-08T12:36:20.195Z,101293.03
2022-10-08T12:39:20.329Z,101295.81
2022-10-08T12:41:58.622Z,101302.84
2022-10-08T12:44:42.751Z,101299.91
2022-10-08T12:48:00.136Z,101300.44
2022-10-08T12:50:56.561Z,101291.03
2022-10-08T12:53:23.809Z,101294.00
2022-10-08T12:55:55.942Z,101277.47
2022-10-08T12:58:29.500Z,101282.88
2022-10-08T13:01:00.581Z,101288.59
2022-10-08T13:03:27.976Z,101285.03
2022-10-08T13:05:58.386Z,101298.84
2022-10-08T13:08:38.974Z,101292.88
2022-10-08T13:11:09.895Z,101302.78
2022-10-08T13:13:39.820Z,101293.28
2022-10-08T13:16:22.718Z,101296.44
2022-10-08T13:18:57.504Z,101282.59
2022-10-08T13:21:37.081Z,101282.28
2022-10-08T13:24:13.069Z,101284.09
2022-10-08T13:26:46.087Z,101272.03
2022-10-08T13:29:22.108Z,101299.84
2022-10-08T13:32:12.540Z,101283.91
2022-10-08T13:34:39.543Z,101282.47
2022-10-08T13:37:09.811Z,101275.13
2022-10-08T13:39:49.898Z,101282.66
2022-10-08T13:42:19.477Z,101281.81
2022-10-08T13:44:46.765Z,101266.06
2022-10-08T13:50:12.196Z,101277.97
2022-10-08T13:52:49.397Z,101272.66
2022-10-08T13:55:32.792Z,101271.16
2022-10-08T13:58:02.365Z,101269.16
2022-10-08T14:00:33.024Z,101275.16
2022-10-08T14:03:00.016Z,101278.81
2022-10-08T14:05:30.509Z,101269.97
2022-10-08T14:08:29.520Z,101268.19
2022-10-08T14:11:00.673Z,101272.72
2022-10-08T14:13:29.554Z,101276.25
2022-10-08T14:15:56.903Z,101277.03
2022-10-08T14:18:23.743Z,101273.97
2022-10-08T14:20:53.403Z,101275.38
2022-10-08T14:23:22.003Z,101275.69
2022-10-08T14:25:49.302Z,101287.28
2022-10-08T14:28:41.450Z,101288.56
2022-10-08T14:31:12.530Z,101287.72
2022-10-08T14:33:39.610Z,101288.25
2022-10-08T14:36:24.162Z,101296.94
2022-10-08T14:38:53.152Z,101303.75
2022-10-08T14:41:20.010Z,101306.16
2022-10-08T14:43:47.201Z,101300.13
2022-10-08T14:46:14.356Z,101302.16
2022-10-08T14:48:41.473Z,101311.81
2022-10-08T14:51:08.297Z,101336.56
2022-10-08T14:53:35.785Z,101342.34
2022-10-08T14:56:12.162Z,101356.03
2022-10-08T14:58:40.311Z,101340.03
2022-10-08T15:01:07.379Z,101349.44
2022-10-08T15:03:34.377Z,101328.47
2022-10-08T15:06:01.356Z,101332.34
2022-10-08T15:08:28.909Z,101356.00
2022-10-08T15:10:55.735Z,101354.94
2022-10-08T15:13:22.961Z,101357.75
2022-10-08T15:15:49.821Z,101354.59
2022-10-08T15:18:16.885Z,101364.78
2022-10-08T15:20:43.705Z,101363.06
2022-10-08T15:23:10.974Z,101366.53
2022-10-08T15:25:38.405Z,101370.03
2022-10-08T15:28:05.680Z,101377.31
2022-10-08T15:30:32.735Z,101406.75
2022-10-08T15:33:04.701Z,101392.84
2022-10-08T15:35:35.908Z,101395.56
2022-10-08T15:38:03.081Z,101408.75
2022-10-08T15:40:31.946Z,101383.28
2022-10-08T15:42:59.693Z,101404.34
2022-10-08T15:45:27.387Z,101407.81
2022-10-08T15:47:54.943Z,101418.59
2022-10-08T15:50:22.062Z,101428.00
2022-10-08T15:53:06.386Z,101438.31
2022-10-08T15:55:34.144Z,101435.78
2022-10-08T15:58:01.491Z,101454.69
2022-10-08T16:00:28.548Z,101441.38
2022-10-08T16:02:55.842Z,101435.66
2022-10-08T16:05:22.673Z,101444.84
2022-10-08T16:07:49.453Z,101455.00
2022-10-08T16:10:16.762Z,101447.00
2022-10-08T16:13:08.914Z,101444.75
2022-10-08T16:15:39.125Z,101453.91
2022-10-08T16:18:05.971Z,101462.97
2022-10-08T16:20:35.217Z,101464.03
2022-10-08T16:23:02.202Z,101466.88
2022-10-08T16:28:24.656Z,101473.19
2022-10-08T16:30:51.632Z,101482.31
2022-10-08T16:33:26.756Z,101480.34
2022-10-08T16:35:55.061Z,101481.66
2022-10-08T16:38:23.042Z,101497.25
2022-10-08T16:40:53.416Z,101492.84
2022-10-08T16:43:20.243Z,101502.88
2022-10-08T16:45:47.501Z,101500.69
2022-10-08T16:48:14.527Z,101504.44
2022-10-08T16:50:42.220Z,101509.25
2022-10-08T16:53:10.268Z,101502.72
2022-10-08T16:55:38.596Z,101519.69
2022-10-08T16:58:06.192Z,101516.69
2022-10-08T17:00:35.689Z,101515.88
2022-10-08T17:03:03.995Z,101521.97
2022-10-08T17:05:30.800Z,101532.44
2022-10-08T17:07:57.833Z,101531.53
2022-10-08T17:10:24.734Z,101540.66
2022-10-08T17:12:52.244Z,101544.91
2022-10-08T17:15:19.084Z,101547.75
2022-10-08T17:17:46.681Z,101561.13
2022-10-08T17:20:13.748Z,101564.19
2022-10-08T17:22:41.111Z,101583.84
2022-10-08T17:25:08.793Z,101581.88
2022-10-08T17:27:35.641Z,101586.34
2022-10-08T17:30:02.513Z,101589.75
2022-10-08T17:32:29.770Z,101596.09
2022-10-08T17:34:56.649Z,101599.34
2022-10-08T17:37:23.772Z,101606.81
2022-10-08T17:39:50.662Z,101605.56
2022-10-08T17:42:17.511Z,101611.06
2022-10-08T17:44:44.342Z,101621.13
2022-10-08T17:47:11.472Z,101615.88
2022-10-08T17:52:29.310Z,101616.38
2022-10-08T17:54:56.248Z,101615.44
2022-10-08T18:00:16.462Z,101635.53
2022-10-08T18:02:43.335Z,101635.41
2022-10-08T18:05:10.423Z,101648.50
2022-10-08T18:07:37.605Z,101650.00
2022-10-08T18:10:05.925Z,101647.16
2022-10-08T18:12:37.020Z,101654.88
2022-10-08T18:15:05.829Z,101660.47
2022-10-08T18:17:32.897Z,101664.31
2022-10-08T18:20:00.214Z,101661.50
2022-10-08T18:22:27.053Z,101675.41
2022-10-08T18:24:54.464Z,101676.69
2022-10-08T18:27:21.437Z,101678.19
2022-10-08T18:29:48.416Z,101675.34
2022-10-08T18:32:15.247Z,101678.84
2022-10-08T18:34:42.382Z,101678.47
2022-10-08T18:37:09.169Z,101683.03
2022-10-08T18:39:36.381Z,101685.59
2022-10-08T18:42:03.401Z,101686.50
2022-10-08T18:44:30.437Z,101687.91
2022-10-08T18:46:59.655Z,101690.47
2022-10-08T18:49:30.825Z,101696.28
2022-10-08T18:51:59.223Z,101697.91
2022-10-08T18:54:26.204Z,101702.09
2022-10-08T18:56:55.166Z,101710.16
2022-10-08T18:59:22.173Z,101709.19
2022-10-08T19:01:49.191Z,101718.06
2022-10-08T19:04:20.769Z,101725.16
2022-10-08T19:06:50.315Z,101728.44
2022-10-08T19:09:17.252Z,101728.09
2022-10-08T19:11:51.940Z,101726.22
2022-10-08T19:14:21.121Z,101731.81
2022-10-08T19:16:48.689Z,101730.41
2022-10-08T19:19:24.088Z,101735.78
2022-10-08T19:22:17.433Z,101739.13
2022-10-08T19:25:09.676Z,101743.31
2022-10-08T19:27:36.583Z,101737.34
2022-10-08T19:30:04.045Z,101751.78
2022-10-08T19:32:36.325Z,101753.84
2022-10-08T19:35:03.572Z,101758.41
2022-10-08T19:37:30.837Z,101757.81
2022-10-08T19:40:05.626Z,101766.09
2022-10-08T19:42:32.591Z,101770.84
2022-10-08T19:44:59.381Z,101772.50
2022-10-08T19:47:26.417Z,101782.63
2022-10-08T19:49:53.298Z,101771.31
2022-10-08T19:52:20.271Z,101779.94
2022-10-08T19:54:47.333Z,101789.88
2022-10-08T19:57:14.170Z,101782.03
2022-10-08T19:59:41.279Z,101792.41
2022-10-08T20:02:10.282Z,101793.59
2022-10-08T20:04:37.358Z,101790.09
2022-10-08T20:07:04.440Z,101789.94
2022-10-08T20:09:31.612Z,101802.31
2022-10-08T20:11:58.427Z,101794.09
2022-10-08T20:14:25.446Z,101797.81
2022-10-08T20:16:52.412Z,101799.03
2022-10-08T20:19:44.642Z,101804.84
2022-10-08T20:22:12.065Z,101802.00
2022-10-08T20:24:39.329Z,101820.34
2022-10-08T20:27:06.141Z,101809.00
2022-10-08T20:29:33.652Z,101818.09
2022-10-08T20:32:00.732Z,101819.72
2022-10-08T20:34:31.074Z,101830.47
2022-10-08T20:37:01.419Z,101821.59
2022-10-08T20:39:28.929Z,101830.91
2022-10-08T20:41:56.333Z,101837.91
2022-10-08T20:44:23.182Z,101835.00
2022-10-08T20:46:51.187Z,101841.19
2022-10-08T20:49:18.451Z,101841.19
2022-10-08T20:51:45.302Z,101841.59
2022-10-08T20:54:15.588Z,101848.22
2022-10-08T20:56:43.025Z,101853.56
2022-10-08T20:59:16.816Z,101852.53
2022-10-08T21:01:44.509Z,101862.66
2022-10-08T21:04:11.358Z,101859.97
2022-10-08T21:06:42.520Z,101860.59
2022-10-08T21:09:10.078Z,101874.44
2022-10-08T21:11:38.654Z,101877.13
2022-10-08T21:14:09.687Z,101884.34
2022-10-08T21:16:39.808Z,101887.69
2022-10-08T21:19:11.693Z,101892.25
2022-10-08T21:21:39.437Z,101884.63
2022-10-08T21:24:07.327Z,101892.91
2022-10-08T21:26:40.383Z,101901.16
2022-10-08T21:29:11.291Z,101897.28
2022-10-08T21:31:40.456Z,101901.22
2022-10-08T21:34:07.981Z,101891.75
2022-10-08T21:36:38.817Z,101899.41
2022-10-08T21:39:08.264Z,101904.59
2022-10-08T21:41:37.413Z,101903.38
2022-10-08T21:44:07.619Z,101905.88
2022-10-08T21:46:38.497Z,101906.31
2022-10-08T21:49:10.313Z,101907.75
2022-10-08T21:51:38.434Z,101913.16
2022-10-08T21:54:06.843Z,101915.63
2022-10-08T21:56:37.808Z,101912.34
2022-10-08T21:59:07.231Z,101917.09
2022-10-08T22:01:57.656Z,101913.41
2022-10-08T22:04:25.486Z,101928.03
2022-10-08T22:06:55.254Z,101918.78
2022-10-08T22:09:26.137Z,101924.34
2022-10-08T22:11:57.398Z,101919.22
2022-10-08T22:14:24.941Z,101912.03
2022-10-08T22:16:51.880Z,101929.75
2022-10-08T22:19:19.793Z,101927.06
2022-10-08T22:21:47.354Z,101923.78
2022-10-08T22:24:14.561Z,101925.03
2022-10-08T22:26:45.317Z,101928.75
2022-10-08T22:29:13.187Z,101930.00
2022-10-08T22:31:40.274Z,101926.28
2022-10-08T22:34:07.490Z,101940.72
2022-10-08T22:36:42.255Z,101943.59
2022-10-08T22:39:09.849Z,101943.81
2022-10-08T22:41:37.427Z,101947.53
2022-10-08T22:44:05.290Z,101951.25
2022-10-08T22:46:37.924Z,101948.56
2022-10-08T22:49:09.817Z,101953.94
2022-10-08T22:51:37.253Z,101946.09
2022-10-08T22:54:06.980Z,101948.56
2022-10-08T22:56:33.969Z,101940.75
2022-10-08T22:59:01.304Z,101941.56
2022-10-08T23:01:29.965Z,101946.91
2022-10-08T23:03:57.829Z,101948.56
2022-10-08T23:06:31.688Z,101944.03
2022-10-08T23:09:01.966Z,101950.22
2022-10-08T23:11:31.497Z,101954.75
2022-10-08T23:13:59.738Z,101954.97
2022-10-08T23:16:29.399Z,101953.31
2022-10-08T23:19:02.182Z,101963.81
2022-10-08T23:21:29.189Z,101958.69
2022-10-08T23:23:56.938Z,101957.03
2022-10-08T23:26:25.054Z,101944.66
2022-10-08T23:28:55.127Z,101947.34
2022-10-08T23:31:26.733Z,101959.91
2022-10-08T23:33:55.054Z,101950.44
2022-10-08T23:36:31.864Z,101954.38
2022-10-08T23:38:59.376Z,101954.38
2022-10-08T23:41:27.254Z,101958.91
2022-10-08T23:43:55.970Z,101958.31
2022-10-08T23:46:28.074Z,101963.66
2022-10-08T23:48:55.688Z,101979.94
2022-10-08T23:51:24.156Z,101970.25
2022-10-08T23:53:52.839Z,101973.16
2022-10-08T23:56:20.766Z,101975.22
2022-10-08T23:58:52.149Z,101969.66
